sensor_id;sensor_type;location;lat;lon;timestamp;temperature;humidity
26505;DHT22;19493;48.042;7.584;2024-02-14T00:00:37;7.20;99.90
26505;DHT22;19493;48.042;7.584;2024-02-14T00:03:02;7.20;99.90
26505;DHT22;19493;48.042;7.584;2024-02-14T00:05:28;7.20;99.90
26505;DHT22;19493;48.042;7.584;2024-02-14T00:07:54;7.30;99.90
26505;DHT22;19493;48.042;7.584;2024-02-14T00:10:20;7.40;99.90
26505;DHT22;19493;48.042;7.584;2024-02-14T00:12:45;7.40;99.90
26505;DHT22;19493;48.042;7.584;2024-02-14T00:15:12;7.50;99.90
26505;DHT22;19493;48.042;7.584;2024-02-14T00:17:37;7.60;99.90
26505;DHT22;19493;48.042;7.584;2024-02-14T00:20:03;7.60;99.90
26505;DHT22;19493;48.042;7.584;2024-02-14T00:22:30;7.70;99.90
26505;DHT22;19493;48.042;7.584;2024-02-14T00:24:55;7.70;99.90
26505;DHT22;19493;48.042;7.584;2024-02-14T00:27:21;7.80;99.90
26505;DHT22;19493;48.042;7.584;2024-02-14T00:29:46;7.80;99.90
26505;DHT22;19493;48.042;7.584;2024-02-14T00:32:14;7.80;99.90
26505;DHT22;19493;48.042;7.584;2024-02-14T00:34:39;7.80;99.90
26505;DHT22;19493;48.042;7.584;2024-02-14T00:37:05;7.70;99.90
26505;DHT22;19493;48.042;7.584;2024-02-14T00:39:30;7.70;99.90
26505;DHT22;19493;48.042;7.584;2024-02-14T00:41:56;7.70;99.90
26505;DHT22;19493;48.042;7.584;2024-02-14T00:44:22;7.70;99.90
26505;DHT22;19493;48.042;7.584;2024-02-14T00:46:48;7.70;99.90
26505;DHT22;19493;48.042;7.584;2024-02-14T00:49:14;7.70;99.90
26505;DHT22;19493;48.042;7.584;2024-02-14T00:51:40;7.70;99.90
26505;DHT22;19493;48.042;7.584;2024-02-14T00:54:06;7.70;99.90
26505;DHT22;19493;48.042;7.584;2024-02-14T00:56:32;7.70;99.90
26505;DHT22;19493;48.042;7.584;2024-02-14T00:58:57;7.70;99.90
26505;DHT22;19493;48.042;7.584;2024-02-14T01:01:23;7.80;99.90
26505;DHT22;19493;48.042;7.584;2024-02-14T01:03:49;7.70;99.90
26505;DHT22;19493;48.042;7.584;2024-02-14T01:06:15;7.70;99.90
26505;DHT22;19493;48.042;7.584;2024-02-14T01:08:44;7.70;99.90
26505;DHT22;19493;48.042;7.584;2024-02-14T01:11:10;7.70;99.90
26505;DHT22;19493;48.042;7.584;2024-02-14T01:13:35;7.70;99.90
26505;DHT22;19493;48.042;7.584;2024-02-14T01:16:02;7.70;99.90
26505;DHT22;19493;48.042;7.584;2024-02-14T01:18:28;7.70;99.90
26505;DHT22;19493;48.042;7.584;2024-02-14T01:20:54;7.70;99.90
26505;DHT22;19493;48.042;7.584;2024-02-14T01:23:19;7.70;99.90
26505;DHT22;19493;48.042;7.584;2024-02-14T01:25:45;7.70;99.90
26505;DHT22;19493;48.042;7.584;2024-02-14T01:28:11;7.70;99.90
26505;DHT22;19493;48.042;7.584;2024-02-14T01:30:36;7.70;99.90
26505;DHT22;19493;48.042;7.584;2024-02-14T01:33:02;7.70;99.90
26505;DHT22;19493;48.042;7.584;2024-02-14T01:35:31;7.60;99.90
26505;DHT22;19493;48.042;7.584;2024-02-14T01:37:56;7.60;99.90
26505;DHT22;19493;48.042;7.584;2024-02-14T01:40:22;7.60;99.90
26505;DHT22;19493;48.042;7.584;2024-02-14T01:42:48;7.70;99.90
26505;DHT22;19493;48.042;7.584;2024-02-14T01:45:14;7.70;99.90
26505;DHT22;19493;48.042;7.584;2024-02-14T01:47:39;7.70;99.90
26505;DHT22;19493;48.042;7.584;2024-02-14T01:50:08;7.70;99.90
26505;DHT22;19493;48.042;7.584;2024-02-14T01:52:37;7.60;99.90
26505;DHT22;19493;48.042;7.584;2024-02-14T01:55:04;7.60;99.90
26505;DHT22;19493;48.042;7.584;2024-02-14T01:57:31;7.50;99.90
26505;DHT22;19493;48.042;7.584;2024-02-14T01:59:58;7.50;99.90
26505;DHT22;19493;48.042;7.584;2024-02-14T02:02:26;7.50;99.90
26505;DHT22;19493;48.042;7.584;2024-02-14T02:04:52;7.40;99.90
26505;DHT22;19493;48.042;7.584;2024-02-14T02:07:18;7.50;99.90
26505;DHT22;19493;48.042;7.584;2024-02-14T02:09:45;7.50;99.90
26505;DHT22;19493;48.042;7.584;2024-02-14T02:12:11;7.60;99.90
26505;DHT22;19493;48.042;7.584;2024-02-14T02:14:36;7.70;99.90
26505;DHT22;19493;48.042;7.584;2024-02-14T02:17:02;7.70;99.90
26505;DHT22;19493;48.042;7.584;2024-02-14T02:19:32;7.70;99.90
26505;DHT22;19493;48.042;7.584;2024-02-14T02:21:58;7.80;99.90
26505;DHT22;19493;48.042;7.584;2024-02-14T02:24:24;7.90;99.90
26505;DHT22;19493;48.042;7.584;2024-02-14T02:26:50;7.90;99.90
26505;DHT22;19493;48.042;7.584;2024-02-14T02:29:15;8.00;99.90
26505;DHT22;19493;48.042;7.584;2024-02-14T02:31:41;8.00;99.90
26505;DHT22;19493;48.042;7.584;2024-02-14T02:34:07;8.10;99.90
26505;DHT22;19493;48.042;7.584;2024-02-14T02:36:36;8.10;99.90
26505;DHT22;19493;48.042;7.584;2024-02-14T02:39:03;8.10;99.90
26505;DHT22;19493;48.042;7.584;2024-02-14T02:41:30;8.10;99.90
26505;DHT22;19493;48.042;7.584;2024-02-14T02:43:57;8.10;99.90
26505;DHT22;19493;48.042;7.584;2024-02-14T02:46:23;8.10;99.90
26505;DHT22;19493;48.042;7.584;2024-02-14T02:48:48;8.10;99.90
26505;DHT22;19493;48.042;7.584;2024-02-14T02:51:17;8.10;99.90
26505;DHT22;19493;48.042;7.584;2024-02-14T02:53:43;8.10;99.90
26505;DHT22;19493;48.042;7.584;2024-02-14T02:56:09;8.10;99.90
26505;DHT22;19493;48.042;7.584;2024-02-14T02:58:34;8.10;99.90
26505;DHT22;19493;48.042;7.584;2024-02-14T03:01:00;8.00;99.90
26505;DHT22;19493;48.042;7.584;2024-02-14T03:03:26;7.90;99.90
26505;DHT22;19493;48.042;7.584;2024-02-14T03:05:53;7.80;99.90
26505;DHT22;19493;48.042;7.584;2024-02-14T03:08:20;7.70;99.90
26505;DHT22;19493;48.042;7.584;2024-02-14T03:10:51;7.60;99.90
26505;DHT22;19493;48.042;7.584;2024-02-14T03:13:16;7.50;99.90
26505;DHT22;19493;48.042;7.584;2024-02-14T03:15:42;7.50;99.90
26505;DHT22;19493;48.042;7.584;2024-02-14T03:18:09;7.50;99.90
26505;DHT22;19493;48.042;7.584;2024-02-14T03:20:36;7.60;99.90
26505;DHT22;19493;48.042;7.584;2024-02-14T03:23:02;7.70;99.90
26505;DHT22;19493;48.042;7.584;2024-02-14T03:25:29;7.80;99.90
26505;DHT22;19493;48.042;7.584;2024-02-14T03:27:54;7.90;99.90
26505;DHT22;19493;48.042;7.584;2024-02-14T03:30:22;8.00;99.90
26505;DHT22;19493;48.042;7.584;2024-02-14T03:32:49;8.00;99.90
26505;DHT22;19493;48.042;7.584;2024-02-14T03:35:15;8.10;99.90
26505;DHT22;19493;48.042;7.584;2024-02-14T03:37:42;8.10;99.90
26505;DHT22;19493;48.042;7.584;2024-02-14T03:40:09;8.20;99.90
26505;DHT22;19493;48.042;7.584;2024-02-14T03:42:35;8.30;99.90
26505;DHT22;19493;48.042;7.584;2024-02-14T03:45:01;8.30;99.90
26505;DHT22;19493;48.042;7.584;2024-02-14T03:47:34;8.40;99.90
26505;DHT22;19493;48.042;7.584;2024-02-14T03:50:00;8.40;99.90
26505;DHT22;19493;48.042;7.584;2024-02-14T03:52:27;8.40;99.90
26505;DHT22;19493;48.042;7.584;2024-02-14T03:54:53;8.40;99.90
26505;DHT22;19493;48.042;7.584;2024-02-14T03:57:18;8.50;99.90
26505;DHT22;19493;48.042;7.584;2024-02-14T03:59:44;8.50;99.90
26505;DHT22;19493;48.042;7.584;2024-02-14T04:02:10;8.50;99.90
26505;DHT22;19493;48.042;7.584;2024-02-14T04:04:41;8.60;99.90
26505;DHT22;19493;48.042;7.584;2024-02-14T04:07:08;8.70;99.90
26505;DHT22;19493;48.042;7.584;2024-02-14T04:09:36;8.70;99.90
26505;DHT22;19493;48.042;7.584;2024-02-14T04:12:02;8.70;99.90
26505;DHT22;19493;48.042;7.584;2024-02-14T04:14:28;8.70;99.90
26505;DHT22;19493;48.042;7.584;2024-02-14T04:16:54;8.70;99.90
26505;DHT22;19493;48.042;7.584;2024-02-14T04:19:20;8.70;99.90
26505;DHT22;19493;48.042;7.584;2024-02-14T04:21:46;8.70;99.90
26505;DHT22;19493;48.042;7.584;2024-02-14T04:24:12;8.70;99.90
26505;DHT22;19493;48.042;7.584;2024-02-14T04:26:38;8.70;99.90
26505;DHT22;19493;48.042;7.584;2024-02-14T04:29:03;8.70;99.90
26505;DHT22;19493;48.042;7.584;2024-02-14T04:31:29;8.70;99.90
26505;DHT22;19493;48.042;7.584;2024-02-14T04:33:55;8.70;99.90
26505;DHT22;19493;48.042;7.584;2024-02-14T04:36:21;8.70;99.90
26505;DHT22;19493;48.042;7.584;2024-02-14T04:38:50;8.70;99.90
26505;DHT22;19493;48.042;7.584;2024-02-14T04:41:16;8.60;99.90
26505;DHT22;19493;48.042;7.584;2024-02-14T04:43:42;8.60;99.90
26505;DHT22;19493;48.042;7.584;2024-02-14T04:46:08;8.50;99.90
26505;DHT22;19493;48.042;7.584;2024-02-14T04:48:37;8.50;99.90
26505;DHT22;19493;48.042;7.584;2024-02-14T04:51:03;8.50;99.90
26505;DHT22;19493;48.042;7.584;2024-02-14T04:53:30;8.50;99.90
26505;DHT22;19493;48.042;7.584;2024-02-14T04:55:56;8.50;99.90
26505;DHT22;19493;48.042;7.584;2024-02-14T04:58:22;8.50;99.90
26505;DHT22;19493;48.042;7.584;2024-02-14T05:00:47;8.50;99.90
26505;DHT22;19493;48.042;7.584;2024-02-14T05:03:13;8.60;99.90
26505;DHT22;19493;48.042;7.584;2024-02-14T05:05:38;8.60;99.90
26505;DHT22;19493;48.042;7.584;2024-02-14T05:08:04;8.70;99.90
26505;DHT22;19493;48.042;7.584;2024-02-14T05:10:31;8.80;99.90
26505;DHT22;19493;48.042;7.584;2024-02-14T05:12:57;8.90;99.90
26505;DHT22;19493;48.042;7.584;2024-02-14T05:15:23;9.00;99.90
26505;DHT22;19493;48.042;7.584;2024-02-14T05:17:49;9.10;99.90
26505;DHT22;19493;48.042;7.584;2024-02-14T05:20:18;9.10;99.90
26505;DHT22;19493;48.042;7.584;2024-02-14T05:22:44;9.00;99.90
26505;DHT22;19493;48.042;7.584;2024-02-14T05:25:10;9.00;99.90
26505;DHT22;19493;48.042;7.584;2024-02-14T05:27:36;9.00;99.90
26505;DHT22;19493;48.042;7.584;2024-02-14T05:30:03;9.00;99.90
26505;DHT22;19493;48.042;7.584;2024-02-14T05:32:33;9.00;99.90
26505;DHT22;19493;48.042;7.584;2024-02-14T05:34:59;8.90;99.90
26505;DHT22;19493;48.042;7.584;2024-02-14T05:37:25;9.00;99.90
26505;DHT22;19493;48.042;7.584;2024-02-14T05:39:53;9.00;99.90
26505;DHT22;19493;48.042;7.584;2024-02-14T05:42:19;9.10;99.90
26505;DHT22;19493;48.042;7.584;2024-02-14T05:44:44;9.20;99.90
26505;DHT22;19493;48.042;7.584;2024-02-14T05:47:10;9.20;99.90
26505;DHT22;19493;48.042;7.584;2024-02-14T05:49:40;9.20;99.90
26505;DHT22;19493;48.042;7.584;2024-02-14T05:52:07;9.20;99.90
26505;DHT22;19493;48.042;7.584;2024-02-14T05:54:33;9.20;99.90
26505;DHT22;19493;48.042;7.584;2024-02-14T05:56:59;9.10;99.90
26505;DHT22;19493;48.042;7.584;2024-02-14T05:59:25;9.00;99.90
26505;DHT22;19493;48.042;7.584;2024-02-14T06:01:51;9.00;99.90
26505;DHT22;19493;48.042;7.584;2024-02-14T06:04:16;9.00;99.90
26505;DHT22;19493;48.042;7.584;2024-02-14T06:06:42;8.90;99.90
26505;DHT22;19493;48.042;7.584;2024-02-14T06:09:08;8.90;99.90
26505;DHT22;19493;48.042;7.584;2024-02-14T06:11:37;8.90;99.90
26505;DHT22;19493;48.042;7.584;2024-02-14T06:14:05;9.00;99.90
26505;DHT22;19493;48.042;7.584;2024-02-14T06:16:32;8.90;99.90
26505;DHT22;19493;48.042;7.584;2024-02-14T06:18:58;9.00;99.90
26505;DHT22;19493;48.042;7.584;2024-02-14T06:21:23;9.00;99.90
26505;DHT22;19493;48.042;7.584;2024-02-14T06:23:49;9.00;99.90
26505;DHT22;19493;48.042;7.584;2024-02-14T06:26:14;9.00;99.90
26505;DHT22;19493;48.042;7.584;2024-02-14T06:28:40;9.00;99.90
26505;DHT22;19493;48.042;7.584;2024-02-14T06:31:05;9.00;99.90
26505;DHT22;19493;48.042;7.584;2024-02-14T06:33:31;9.00;99.90
26505;DHT22;19493;48.042;7.584;2024-02-14T06:35:56;9.10;99.90
26505;DHT22;19493;48.042;7.584;2024-02-14T06:38:22;9.20;99.90
26505;DHT22;19493;48.042;7.584;2024-02-14T06:40:48;9.30;99.90
26505;DHT22;19493;48.042;7.584;2024-02-14T06:43:13;9.40;99.90
26505;DHT22;19493;48.042;7.584;2024-02-14T06:45:39;9.40;99.90
26505;DHT22;19493;48.042;7.584;2024-02-14T06:48:05;9.40;99.90
26505;DHT22;19493;48.042;7.584;2024-02-14T06:50:30;9.30;99.90
26505;DHT22;19493;48.042;7.584;2024-02-14T06:52:56;9.30;99.90
26505;DHT22;19493;48.042;7.584;2024-02-14T06:55:26;9.20;99.90
26505;DHT22;19493;48.042;7.584;2024-02-14T06:57:52;9.20;99.90
26505;DHT22;19493;48.042;7.584;2024-02-14T07:00:18;9.10;99.90
26505;DHT22;19493;48.042;7.584;2024-02-14T07:02:44;9.10;99.90
26505;DHT22;19493;48.042;7.584;2024-02-14T07:05:12;9.10;99.90
26505;DHT22;19493;48.042;7.584;2024-02-14T07:07:40;9.20;99.90
26505;DHT22;19493;48.042;7.584;2024-02-14T07:10:06;9.20;99.90
26505;DHT22;19493;48.042;7.584;2024-02-14T07:12:32;9.20;99.90
26505;DHT22;19493;48.042;7.584;2024-02-14T07:14:58;9.10;99.90
26505;DHT22;19493;48.042;7.584;2024-02-14T07:17:23;9.10;99.90
26505;DHT22;19493;48.042;7.584;2024-02-14T07:19:49;9.10;99.90
26505;DHT22;19493;48.042;7.584;2024-02-14T07:22:15;9.10;99.90
26505;DHT22;19493;48.042;7.584;2024-02-14T07:24:43;9.10;99.90
26505;DHT22;19493;48.042;7.584;2024-02-14T07:27:09;9.10;99.90
26505;DHT22;19493;48.042;7.584;2024-02-14T07:29:34;9.10;99.90
26505;DHT22;19493;48.042;7.584;2024-02-14T07:32:02;9.10;99.90
26505;DHT22;19493;48.042;7.584;2024-02-14T07:34:27;9.10;99.90
26505;DHT22;19493;48.042;7.584;2024-02-14T07:36:53;9.10;99.90
26505;DHT22;19493;48.042;7.584;2024-02-14T07:39:19;9.10;99.90
26505;DHT22;19493;48.042;7.584;2024-02-14T07:41:44;9.10;99.90
26505;DHT22;19493;48.042;7.584;2024-02-14T07:44:10;9.20;99.90
26505;DHT22;19493;48.042;7.584;2024-02-14T07:46:36;9.20;99.90
26505;DHT22;19493;48.042;7.584;2024-02-14T07:49:01;9.30;99.90
26505;DHT22;19493;48.042;7.584;2024-02-14T07:51:27;9.40;99.90
26505;DHT22;19493;48.042;7.584;2024-02-14T07:53:54;9.50;99.90
26505;DHT22;19493;48.042;7.584;2024-02-14T07:56:20;9.50;99.90
26505;DHT22;19493;48.042;7.584;2024-02-14T07:58:46;9.50;99.90
26505;DHT22;19493;48.042;7.584;2024-02-14T08:01:11;9.50;99.90
26505;DHT22;19493;48.042;7.584;2024-02-14T08:03:37;9.50;99.90
26505;DHT22;19493;48.042;7.584;2024-02-14T08:06:02;9.50;99.90
26505;DHT22;19493;48.042;7.584;2024-02-14T08:08:28;9.60;99.90
26505;DHT22;19493;48.042;7.584;2024-02-14T08:10:54;9.60;99.90
26505;DHT22;19493;48.042;7.584;2024-02-14T08:13:20;9.70;99.90
26505;DHT22;19493;48.042;7.584;2024-02-14T08:15:45;9.70;99.90
26505;DHT22;19493;48.042;7.584;2024-02-14T08:18:11;9.80;99.90
26505;DHT22;19493;48.042;7.584;2024-02-14T08:20:38;9.80;99.90
26505;DHT22;19493;48.042;7.584;2024-02-14T08:23:03;9.90;99.90
26505;DHT22;19493;48.042;7.584;2024-02-14T08:25:32;10.00;99.90
26505;DHT22;19493;48.042;7.584;2024-02-14T08:27:58;10.10;99.90
26505;DHT22;19493;48.042;7.584;2024-02-14T08:30:23;10.10;99.90
26505;DHT22;19493;48.042;7.584;2024-02-14T08:32:49;10.20;99.90
26505;DHT22;19493;48.042;7.584;2024-02-14T08:35:15;10.40;99.90
26505;DHT22;19493;48.042;7.584;2024-02-14T08:37:41;10.60;99.90
26505;DHT22;19493;48.042;7.584;2024-02-14T08:40:08;10.70;99.90
26505;DHT22;19493;48.042;7.584;2024-02-14T08:42:35;10.80;99.90
26505;DHT22;19493;48.042;7.584;2024-02-14T08:45:01;10.90;99.90
26505;DHT22;19493;48.042;7.584;2024-02-14T08:47:26;10.90;99.90
26505;DHT22;19493;48.042;7.584;2024-02-14T08:49:52;11.00;99.90
26505;DHT22;19493;48.042;7.584;2024-02-14T08:52:17;11.10;99.90
26505;DHT22;19493;48.042;7.584;2024-02-14T08:54:44;11.20;99.90
26505;DHT22;19493;48.042;7.584;2024-02-14T08:57:09;11.40;99.90
26505;DHT22;19493;48.042;7.584;2024-02-14T08:59:35;11.50;99.90
26505;DHT22;19493;48.042;7.584;2024-02-14T09:02:00;11.70;99.90
26505;DHT22;19493;48.042;7.584;2024-02-14T09:04:27;11.90;99.90
26505;DHT22;19493;48.042;7.584;2024-02-14T09:06:52;12.10;99.90
26505;DHT22;19493;48.042;7.584;2024-02-14T09:09:18;12.30;99.90
26505;DHT22;19493;48.042;7.584;2024-02-14T09:11:45;12.30;99.90
26505;DHT22;19493;48.042;7.584;2024-02-14T09:14:12;12.20;99.90
26505;DHT22;19493;48.042;7.584;2024-02-14T09:16:37;12.50;99.90
26505;DHT22;19493;48.042;7.584;2024-02-14T09:19:03;13.00;99.90
26505;DHT22;19493;48.042;7.584;2024-02-14T09:21:32;13.40;99.90
26505;DHT22;19493;48.042;7.584;2024-02-14T09:23:59;13.60;99.90
26505;DHT22;19493;48.042;7.584;2024-02-14T09:26:25;13.80;99.90
26505;DHT22;19493;48.042;7.584;2024-02-14T09:28:52;14.10;99.90
26505;DHT22;19493;48.042;7.584;2024-02-14T09:31:21;14.30;99.90
26505;DHT22;19493;48.042;7.584;2024-02-14T09:33:47;14.50;99.90
26505;DHT22;19493;48.042;7.584;2024-02-14T09:36:13;14.50;99.90
26505;DHT22;19493;48.042;7.584;2024-02-14T09:38:42;14.50;99.90
26505;DHT22;19493;48.042;7.584;2024-02-14T09:43:47;14.00;99.90
26505;DHT22;19493;48.042;7.584;2024-02-14T09:46:14;14.10;99.90
26505;DHT22;19493;48.042;7.584;2024-02-14T09:48:44;14.00;99.90
26505;DHT22;19493;48.042;7.584;2024-02-14T09:51:10;13.80;99.90
26505;DHT22;19493;48.042;7.584;2024-02-14T09:53:37;13.80;99.90
26505;DHT22;19493;48.042;7.584;2024-02-14T09:56:03;14.30;99.90
26505;DHT22;19493;48.042;7.584;2024-02-14T09:58:31;15.00;99.90
26505;DHT22;19493;48.042;7.584;2024-02-14T10:00:57;15.80;99.90
26505;DHT22;19493;48.042;7.584;2024-02-14T10:03:23;16.30;99.90
26505;DHT22;19493;48.042;7.584;2024-02-14T10:05:48;16.40;99.90
26505;DHT22;19493;48.042;7.584;2024-02-14T10:08:14;16.40;99.90
26505;DHT22;19493;48.042;7.584;2024-02-14T10:10:40;16.50;99.90
26505;DHT22;19493;48.042;7.584;2024-02-14T10:13:06;16.90;99.90
26505;DHT22;19493;48.042;7.584;2024-02-14T10:15:32;17.30;99.90
26505;DHT22;19493;48.042;7.584;2024-02-14T10:17:59;17.50;99.90
26505;DHT22;19493;48.042;7.584;2024-02-14T10:20:25;17.20;99.90
26505;DHT22;19493;48.042;7.584;2024-02-14T10:22:59;17.10;99.90
26505;DHT22;19493;48.042;7.584;2024-02-14T10:25:25;17.00;99.90
26505;DHT22;19493;48.042;7.584;2024-02-14T10:27:51;17.70;99.90
26505;DHT22;19493;48.042;7.584;2024-02-14T10:30:17;18.30;99.90
26505;DHT22;19493;48.042;7.584;2024-02-14T10:32:42;18.20;98.80
26505;DHT22;19493;48.042;7.584;2024-02-14T10:35:14;17.50;98.90
26505;DHT22;19493;48.042;7.584;2024-02-14T10:37:40;17.30;99.90
26505;DHT22;19493;48.042;7.584;2024-02-14T10:40:07;17.70;99.40
26505;DHT22;19493;48.042;7.584;2024-02-14T10:42:34;18.00;97.90
26505;DHT22;19493;48.042;7.584;2024-02-14T10:45:01;17.50;98.20
26505;DHT22;19493;48.042;7.584;2024-02-14T10:47:31;17.50;98.50
26505;DHT22;19493;48.042;7.584;2024-02-14T10:50:02;17.20;98.40
26505;DHT22;19493;48.042;7.584;2024-02-14T10:52:32;16.80;99.20
26505;DHT22;19493;48.042;7.584;2024-02-14T10:55:04;16.40;99.90
26505;DHT22;19493;48.042;7.584;2024-02-14T10:57:31;16.40;99.90
26505;DHT22;19493;48.042;7.584;2024-02-14T11:00:08;17.10;99.90
26505;DHT22;19493;48.042;7.584;2024-02-14T11:02:35;16.70;99.80
26505;DHT22;19493;48.042;7.584;2024-02-14T11:05:02;16.80;99.90
26505;DHT22;19493;48.042;7.584;2024-02-14T11:07:28;16.70;99.60
26505;DHT22;19493;48.042;7.584;2024-02-14T11:12:33;17.80;99.20
26505;DHT22;19493;48.042;7.584;2024-02-14T11:15:00;19.20;97.10
26505;DHT22;19493;48.042;7.584;2024-02-14T11:17:26;20.60;93.90
26505;DHT22;19493;48.042;7.584;2024-02-14T11:19:53;21.80;90.90
26505;DHT22;19493;48.042;7.584;2024-02-14T11:22:20;21.80;88.10
26505;DHT22;19493;48.042;7.584;2024-02-14T11:24:49;21.40;86.80
26505;DHT22;19493;48.042;7.584;2024-02-14T11:27:14;21.70;86.10
26505;DHT22;19493;48.042;7.584;2024-02-14T11:29:53;22.50;82.70
26505;DHT22;19493;48.042;7.584;2024-02-14T11:32:19;23.10;81.20
26505;DHT22;19493;48.042;7.584;2024-02-14T11:34:54;22.50;78.20
26505;DHT22;19493;48.042;7.584;2024-02-14T11:37:28;21.80;79.60
26505;DHT22;19493;48.042;7.584;2024-02-14T11:39:54;21.50;81.00
26505;DHT22;19493;48.042;7.584;2024-02-14T11:42:21;20.90;82.50
26505;DHT22;19493;48.042;7.584;2024-02-14T11:44:47;21.20;82.30
26505;DHT22;19493;48.042;7.584;2024-02-14T11:47:13;22.20;80.30
26505;DHT22;19493;48.042;7.584;2024-02-14T11:49:39;22.70;78.40
26505;DHT22;19493;48.042;7.584;2024-02-14T11:52:05;22.10;77.00
26505;DHT22;19493;48.042;7.584;2024-02-14T11:54:34;19.50;82.50
26505;DHT22;19493;48.042;7.584;2024-02-14T11:57:00;17.80;89.60
26505;DHT22;19493;48.042;7.584;2024-02-14T11:59:26;17.00;92.10
26505;DHT22;19493;48.042;7.584;2024-02-14T12:01:52;16.90;93.90
26505;DHT22;19493;48.042;7.584;2024-02-14T12:04:19;17.30;94.10
26505;DHT22;19493;48.042;7.584;2024-02-14T12:06:45;18.10;93.50
26505;DHT22;19493;48.042;7.584;2024-02-14T12:09:11;17.80;93.60
26505;DHT22;19493;48.042;7.584;2024-02-14T12:11:39;17.50;94.30
26505;DHT22;19493;48.042;7.584;2024-02-14T12:14:10;17.00;95.70
26505;DHT22;19493;48.042;7.584;2024-02-14T12:16:36;17.00;96.50
26505;DHT22;19493;48.042;7.584;2024-02-14T12:19:14;16.90;97.40
26505;DHT22;19493;48.042;7.584;2024-02-14T12:21:41;17.00;97.50
26505;DHT22;19493;48.042;7.584;2024-02-14T12:24:12;17.60;97.40
26505;DHT22;19493;48.042;7.584;2024-02-14T12:26:42;18.80;95.90
26505;DHT22;19493;48.042;7.584;2024-02-14T12:29:10;20.00;93.20
26505;DHT22;19493;48.042;7.584;2024-02-14T12:31:36;20.10;92.30
26505;DHT22;19493;48.042;7.584;2024-02-14T12:34:03;20.50;91.30
26505;DHT22;19493;48.042;7.584;2024-02-14T12:36:33;21.50;90.30
26505;DHT22;19493;48.042;7.584;2024-02-14T12:38:59;22.00;87.00
26505;DHT22;19493;48.042;7.584;2024-02-14T12:41:28;22.80;85.30
26505;DHT22;19493;48.042;7.584;2024-02-14T12:43:57;23.60;81.60
26505;DHT22;19493;48.042;7.584;2024-02-14T12:46:24;24.10;78.50
26505;DHT22;19493;48.042;7.584;2024-02-14T12:48:49;22.70;79.40
26505;DHT22;19493;48.042;7.584;2024-02-14T12:51:15;21.90;81.80
26505;DHT22;19493;48.042;7.584;2024-02-14T12:53:41;23.60;80.30
26505;DHT22;19493;48.042;7.584;2024-02-14T12:56:07;24.00;77.80
26505;DHT22;19493;48.042;7.584;2024-02-14T12:58:33;24.90;74.80
26505;DHT22;19493;48.042;7.584;2024-02-14T13:00:59;24.10;75.50
26505;DHT22;19493;48.042;7.584;2024-02-14T13:03:26;24.40;74.30
26505;DHT22;19493;48.042;7.584;2024-02-14T13:05:52;23.90;74.30
26505;DHT22;19493;48.042;7.584;2024-02-14T13:08:21;23.80;75.10
26505;DHT22;19493;48.042;7.584;2024-02-14T13:10:49;23.30;74.00
26505;DHT22;19493;48.042;7.584;2024-02-14T13:13:14;21.50;78.10
26505;DHT22;19493;48.042;7.584;2024-02-14T13:15:40;18.90;84.80
26505;DHT22;19493;48.042;7.584;2024-02-14T13:18:08;17.40;91.10
26505;DHT22;19493;48.042;7.584;2024-02-14T13:20:33;16.50;94.40
26505;DHT22;19493;48.042;7.584;2024-02-14T13:22:59;16.40;97.10
26505;DHT22;19493;48.042;7.584;2024-02-14T13:25:25;16.20;98.80
26505;DHT22;19493;48.042;7.584;2024-02-14T13:27:51;16.10;99.90
26505;DHT22;19493;48.042;7.584;2024-02-14T13:30:17;16.00;99.90
26505;DHT22;19493;48.042;7.584;2024-02-14T13:32:44;16.00;99.90
26505;DHT22;19493;48.042;7.584;2024-02-14T13:35:09;15.80;99.90
26505;DHT22;19493;48.042;7.584;2024-02-14T13:37:36;15.70;99.90
26505;DHT22;19493;48.042;7.584;2024-02-14T13:40:02;15.70;99.90
26505;DHT22;19493;48.042;7.584;2024-02-14T13:42:30;15.60;99.90
26505;DHT22;19493;48.042;7.584;2024-02-14T13:44:56;15.50;99.90
26505;DHT22;19493;48.042;7.584;2024-02-14T13:47:22;15.50;99.90
26505;DHT22;19493;48.042;7.584;2024-02-14T13:49:48;15.50;99.90
26505;DHT22;19493;48.042;7.584;2024-02-14T13:52:14;15.10;99.90
26505;DHT22;19493;48.042;7.584;2024-02-14T13:54:41;15.20;99.90
26505;DHT22;19493;48.042;7.584;2024-02-14T13:57:07;15.20;99.90
26505;DHT22;19493;48.042;7.584;2024-02-14T13:59:33;15.10;99.90
26505;DHT22;19493;48.042;7.584;2024-02-14T14:01:59;14.80;99.90
26505;DHT22;19493;48.042;7.584;2024-02-14T14:04:24;14.90;99.90
26505;DHT22;19493;48.042;7.584;2024-02-14T14:06:51;14.90;99.90
26505;DHT22;19493;48.042;7.584;2024-02-14T14:09:16;15.00;99.90
26505;DHT22;19493;48.042;7.584;2024-02-14T14:11:42;15.20;99.90
26505;DHT22;19493;48.042;7.584;2024-02-14T14:14:07;15.20;99.90
26505;DHT22;19493;48.042;7.584;2024-02-14T14:16:34;15.10;99.90
26505;DHT22;19493;48.042;7.584;2024-02-14T14:19:00;15.00;99.90
26505;DHT22;19493;48.042;7.584;2024-02-14T14:21:26;14.90;99.90
26505;DHT22;19493;48.042;7.584;2024-02-14T14:23:51;14.70;99.90
26505;DHT22;19493;48.042;7.584;2024-02-14T14:26:18;14.60;99.90
26505;DHT22;19493;48.042;7.584;2024-02-14T14:28:43;14.60;99.90
26505;DHT22;19493;48.042;7.584;2024-02-14T14:31:09;14.60;99.90
26505;DHT22;19493;48.042;7.584;2024-02-14T14:33:36;14.60;99.90
26505;DHT22;19493;48.042;7.584;2024-02-14T14:36:06;14.50;99.90
26505;DHT22;19493;48.042;7.584;2024-02-14T14:38:31;14.40;99.90
26505;DHT22;19493;48.042;7.584;2024-02-14T14:40:57;14.30;99.90
26505;DHT22;19493;48.042;7.584;2024-02-14T14:43:25;14.30;99.90
26505;DHT22;19493;48.042;7.584;2024-02-14T14:45:50;14.30;99.90
26505;DHT22;19493;48.042;7.584;2024-02-14T14:48:18;14.30;99.90
26505;DHT22;19493;48.042;7.584;2024-02-14T14:50:44;14.20;99.90
26505;DHT22;19493;48.042;7.584;2024-02-14T14:53:09;14.10;99.90
26505;DHT22;19493;48.042;7.584;2024-02-14T14:55:54;14.10;99.90
26505;DHT22;19493;48.042;7.584;2024-02-14T14:58:24;14.00;99.90
26505;DHT22;19493;48.042;7.584;2024-02-14T15:00:55;14.00;99.90
26505;DHT22;19493;48.042;7.584;2024-02-14T15:03:21;13.90;99.90
26505;DHT22;19493;48.042;7.584;2024-02-14T15:05:47;13.80;99.90
26505;DHT22;19493;48.042;7.584;2024-02-14T15:08:13;13.70;99.90
26505;DHT22;19493;48.042;7.584;2024-02-14T15:10:40;13.60;99.90
26505;DHT22;19493;48.042;7.584;2024-02-14T15:13:06;13.60;99.90
26505;DHT22;19493;48.042;7.584;2024-02-14T15:15:34;13.60;99.90
26505;DHT22;19493;48.042;7.584;2024-02-14T15:18:00;13.60;99.90
26505;DHT22;19493;48.042;7.584;2024-02-14T15:20:25;13.50;99.90
26505;DHT22;19493;48.042;7.584;2024-02-14T15:22:51;13.50;99.90
26505;DHT22;19493;48.042;7.584;2024-02-14T15:25:16;13.50;99.90
26505;DHT22;19493;48.042;7.584;2024-02-14T15:27:42;13.50;99.90
26505;DHT22;19493;48.042;7.584;2024-02-14T15:30:24;13.50;99.90
26505;DHT22;19493;48.042;7.584;2024-02-14T15:33:08;13.50;99.90
26505;DHT22;19493;48.042;7.584;2024-02-14T15:36:06;13.50;99.90
26505;DHT22;19493;48.042;7.584;2024-02-14T15:38:32;13.40;99.90
26505;DHT22;19493;48.042;7.584;2024-02-14T15:40:58;13.50;99.90